Time;durP1;ratioP1;P1;durP2;ratioP2;P2;SDS_P1;SDS_P2;PMS_P1;PMS_P2;Temp;Humidity;BMP_temperature;BMP_pressure;BME280_temperature;BME280_humidity;BME280_pressure;Samples;Min_cycle;Max_cycle;Signal;HPM_P1;HPM_P2
2023/03/23 00:00:51;;;;;;;3.65;0.50;;;20.00;62.50;;;;;;5035069;28;20044;-69
2023/03/23 00:03:17;;;;;;;3.38;0.63;;;20.00;62.40;;;;;;5051885;28;20053;-69
2023/03/23 00:05:49;;;;;;;1.33;0.60;;;20.00;62.30;;;;;;5038253;28;20211;-68
2023/03/23 00:08:16;;;;;;;3.80;0.50;;;20.00;62.40;;;;;;5047313;28;20045;-69
2023/03/23 00:10:42;;;;;;;2.83;0.70;;;20.00;62.30;;;;;;5052267;28;20054;-69
2023/03/23 00:13:07;;;;;;;1.73;0.60;;;19.90;62.30;;;;;;5064632;28;20477;-69
2023/03/23 00:15:35;;;;;;;1.73;0.70;;;19.90;62.30;;;;;;5071301;28;20098;-69
2023/03/23 00:18:04;;;;;;;1.73;0.63;;;19.90;62.20;;;;;;5033323;28;20045;-69
2023/03/23 00:20:37;;;;;;;1.80;0.50;;;19.90;62.20;;;;;;5034408;28;20049;-69
2023/03/23 00:23:03;;;;;;;2.70;0.63;;;19.90;62.20;;;;;;5052706;28;20041;-69
2023/03/23 00:25:29;;;;;;;1.35;0.50;;;19.90;62.20;;;;;;5034024;28;20045;-69
2023/03/23 00:27:56;;;;;;;2.65;0.70;;;19.90;62.80;;;;;;5034019;28;20040;-69
2023/03/23 00:30:21;;;;;;;2.97;0.70;;;19.90;62.20;;;;;;5034039;28;20492;-69
2023/03/23 00:32:48;;;;;;;4.22;0.65;;;19.90;62.10;;;;;;5033810;28;20511;-69
2023/03/23 00:35:14;;;;;;;1.23;0.50;;;19.80;62.00;;;;;;5034289;28;20041;-69
2023/03/23 00:37:40;;;;;;;1.90;0.70;;;19.90;62.10;;;;;;5052493;28;20115;-70
2023/03/23 00:40:09;;;;;;;1.80;0.70;;;19.80;62.10;;;;;;5051804;28;20447;-69
2023/03/23 00:42:37;;;;;;;2.40;0.50;;;19.80;62.00;;;;;;5052311;28;20120;-69
2023/03/23 00:45:10;;;;;;;2.53;0.50;;;19.80;62.00;;;;;;5034192;28;20044;-69
2023/03/23 00:47:38;;;;;;;1.67;0.60;;;19.90;62.10;;;;;;5034115;28;20494;-69
2023/03/23 00:50:05;;;;;;;;;;;19.80;62.00;;;;;;5034879;28;20098;-69
2023/03/23 00:52:30;;;;;;;1.85;0.50;;;19.80;61.90;;;;;;5051819;28;19966;-69
2023/03/23 00:54:56;;;;;;;1.83;0.50;;;19.80;62.00;;;;;;5034369;28;20156;-69
2023/03/23 00:57:24;;;;;;;1.00;0.55;;;19.80;62.00;;;;;;5033782;28;20130;-69
2023/03/23 00:59:50;;;;;;;2.22;0.50;;;19.80;62.00;;;;;;5034051;28;20049;-69
2023/03/23 01:02:16;;;;;;;2.10;0.93;;;19.80;61.90;;;;;;5052014;28;20175;-70
2023/03/23 01:04:44;;;;;;;1.85;0.45;;;19.70;62.60;;;;;;5052138;28;20084;-69
2023/03/23 01:07:12;;;;;;;2.03;0.60;;;19.70;61.90;;;;;;5033397;28;20071;-69
2023/03/23 01:09:44;;;;;;;2.50;0.60;;;19.70;61.90;;;;;;5051697;28;20057;-69
2023/03/23 01:12:10;;;;;;;1.88;0.47;;;19.70;61.90;;;;;;5051645;28;20041;-69
2023/03/23 01:14:36;;;;;;;3.10;0.60;;;19.80;61.90;;;;;;5051258;28;20395;-69
2023/03/23 01:17:01;;;;;;;3.60;0.60;;;19.70;61.80;;;;;;5033951;28;20041;-69
2023/03/23 01:19:27;;;;;;;1.23;0.50;;;19.70;61.80;;;;;;5034004;28;20444;-68
2023/03/23 01:21:52;;;;;;;1.58;0.60;;;19.70;61.80;;;;;;5033399;28;20040;-69
2023/03/23 01:24:18;;;;;;;1.73;0.63;;;19.70;61.80;;;;;;5051867;28;20492;-69
2023/03/23 01:26:44;;;;;;;1.67;0.52;;;19.70;61.70;;;;;;5051988;28;20112;-69
2023/03/23 01:29:09;;;;;;;0.95;0.52;;;19.70;61.70;;;;;;5050869;28;20045;-69
2023/03/23 01:31:36;;;;;;;1.58;0.60;;;19.70;61.70;;;;;;5052097;28;20033;-69
2023/03/23 01:34:02;;;;;;;2.72;0.73;;;19.70;61.70;;;;;;5033728;28;20045;-69
2023/03/23 01:36:32;;;;;;;1.50;0.60;;;19.70;61.70;;;;;;5033389;28;20091;-69
2023/03/23 01:38:58;;;;;;;1.25;0.60;;;19.70;61.70;;;;;;5034430;28;20056;-69
2023/03/23 01:41:24;;;;;;;1.80;0.60;;;19.70;61.60;;;;;;5052009;28;20033;-68
2023/03/23 01:44:03;;;;;;;1.95;0.60;;;19.70;61.60;;;;;;5020388;28;20049;-69
2023/03/23 01:46:30;;;;;;;1.25;0.63;;;19.70;61.60;;;;;;5055847;28;20040;-70
2023/03/23 01:48:57;;;;;;;1.95;0.60;;;19.70;61.60;;;;;;5036785;28;20461;-68
2023/03/23 01:51:23;;;;;;;1.42;0.52;;;19.60;61.60;;;;;;5021472;28;20043;-68
2023/03/23 01:53:53;;;;;;;2.20;0.68;;;19.60;61.60;;;;;;5041332;28;20115;-68
2023/03/23 01:56:20;;;;;;;1.88;0.70;;;19.60;61.60;;;;;;5040136;28;20044;-69
2023/03/23 01:58:45;;;;;;;2.22;0.77;;;19.60;61.60;;;;;;5057571;28;20437;-69
2023/03/23 02:01:12;;;;;;;2.08;0.60;;;19.60;61.50;;;;;;5040498;28;20044;-68
2023/03/23 02:03:39;;;;;;;2.20;0.70;;;19.60;61.60;;;;;;5037106;28;20456;-69
2023/03/23 02:06:05;;;;;;;2.55;0.70;;;19.60;61.60;;;;;;5020691;28;20050;-69
2023/03/23 02:08:32;;;;;;;1.42;0.50;;;19.60;61.60;;;;;;5055300;28;20056;-68
2023/03/23 02:10:58;;;;;;;1.40;0.63;;;19.60;61.60;;;;;;5033192;28;20089;-69
2023/03/23 02:13:23;;;;;;;1.42;0.50;;;19.60;61.50;;;;;;5033791;28;20093;-69
2023/03/23 02:16:11;;;;;;;2.38;0.68;;;19.60;61.50;;;;;;5033890;28;20492;-69
2023/03/23 02:18:42;;;;;;;2.15;0.68;;;19.60;61.50;;;;;;5014153;28;20064;-68
2023/03/23 02:21:35;;;;;;;2.33;0.65;;;19.60;61.50;;;;;;5033726;28;20053;-69
2023/03/23 02:24:21;;;;;;;1.70;0.60;;;19.60;61.50;;;;;;5025126;28;20054;-69
2023/03/23 02:27:36;;;;;;;1.67;0.63;;;19.60;61.50;;;;;;5034047;28;20274;-68
2023/03/23 02:30:31;;;;;;;1.50;0.63;;;19.50;61.40;;;;;;4980374;28;20073;-69
2023/03/23 02:33:28;;;;;;;1.95;0.60;;;19.50;61.50;;;;;;5032796;28;20418;-69
2023/03/23 02:36:13;;;;;;;1.35;0.50;;;19.50;61.50;;;;;;5033732;28;20389;-69
2023/03/23 02:38:44;;;;;;;1.67;0.65;;;19.50;61.50;;;;;;5033310;28;20045;-68
2023/03/23 02:41:09;;;;;;;4.55;0.73;;;19.50;61.50;;;;;;5033103;28;20116;-69
2023/03/23 02:43:39;;;;;;;1.95;0.70;;;19.50;61.40;;;;;;5016963;28;20128;-69
2023/03/23 02:46:06;;;;;;;2.15;0.60;;;19.50;61.50;;;;;;5016422;28;20052;-69
2023/03/23 02:48:31;;;;;;;1.92;0.55;;;19.50;61.50;;;;;;5029889;28;20057;-69
2023/03/23 02:50:57;;;;;;;2.22;0.63;;;19.50;61.40;;;;;;5017055;28;20049;-69
2023/03/23 02:53:24;;;;;;;2.83;1.23;;;19.50;61.50;;;;;;5033471;28;20042;-69
2023/03/23 02:55:52;;;;;;;1.92;0.50;;;19.50;61.50;;;;;;5033365;28;20050;-69
2023/03/23 02:58:18;;;;;;;1.85;0.65;;;19.50;61.40;;;;;;5033203;28;20053;-68
2023/03/23 03:00:44;;;;;;;1.27;0.60;;;19.50;61.40;;;;;;5032712;28;20513;-68
2023/03/23 03:03:13;;;;;;;1.45;0.60;;;19.50;61.40;;;;;;5033197;28;20037;-69
2023/03/23 03:05:54;;;;;;;1.65;0.60;;;19.50;61.40;;;;;;5032755;28;20080;-68
2023/03/23 03:08:39;;;;;;;2.00;0.77;;;19.50;61.40;;;;;;5018281;28;20088;-69
2023/03/23 03:11:15;;;;;;;1.77;0.63;;;19.50;61.40;;;;;;5048716;28;20147;-69
2023/03/23 03:13:54;;;;;;;2.20;0.70;;;19.50;61.40;;;;;;5019338;28;20060;-69
2023/03/23 03:16:19;;;;;;;;;;;19.40;61.30;;;;;;5036420;28;20041;-69
2023/03/23 03:18:56;;;;;;;2.13;0.70;;;19.40;61.30;;;;;;5036052;28;20288;-69
2023/03/23 03:21:25;;;;;;;1.33;0.50;;;19.40;61.30;;;;;;5018768;28;20047;-68
2023/03/23 03:23:51;;;;;;;2.42;0.82;;;19.40;61.30;;;;;;5019921;28;20041;-69
2023/03/23 03:26:17;;;;;;;1.70;0.60;;;19.40;61.30;;;;;;5036038;28;20045;-70
2023/03/23 03:28:47;;;;;;;1.10;0.50;;;19.40;61.30;;;;;;5035609;28;20138;-69
2023/03/23 03:31:13;;;;;;;1.30;0.60;;;19.40;61.30;;;;;;5019789;28;20041;-69
2023/03/23 03:33:38;;;;;;;1.15;0.60;;;19.40;61.30;;;;;;5036324;28;20519;-69
2023/03/23 03:36:06;;;;;;;4.00;0.70;;;19.40;61.30;;;;;;5035095;28;20095;-69
2023/03/23 03:38:43;;;;;;;1.77;0.60;;;19.40;61.30;;;;;;5036055;28;20435;-66
2023/03/23 03:41:09;;;;;;;2.17;0.60;;;19.40;61.30;;;;;;5034997;28;20041;-69
2023/03/23 03:43:35;;;;;;;1.83;0.60;;;19.40;61.30;;;;;;5053499;28;20044;-68
2023/03/23 03:46:01;;;;;;;0.80;0.47;;;19.40;61.30;;;;;;5035337;28;20476;-68
2023/03/23 03:48:27;;;;;;;1.42;0.70;;;19.40;61.30;;;;;;5034700;28;20102;-68
2023/03/23 03:50:56;;;;;;;2.38;0.60;;;19.40;61.30;;;;;;5053507;28;20037;-68
2023/03/23 03:53:25;;;;;;;1.02;0.50;;;19.40;61.30;;;;;;5052114;28;20049;-68
2023/03/23 03:55:55;;;;;;;1.33;0.60;;;19.40;61.30;;;;;;5052425;28;20048;-68
2023/03/23 03:58:24;;;;;;;1.75;0.60;;;19.40;61.40;;;;;;5052689;28;20524;-68
2023/03/23 04:00:50;;;;;;;1.33;0.52;;;19.40;61.30;;;;;;5035380;28;20472;-68
2023/03/23 04:03:16;;;;;;;1.65;0.60;;;19.40;61.30;;;;;;5052373;28;20049;-68
2023/03/23 04:05:44;;;;;;;1.65;0.52;;;19.40;61.30;;;;;;5052412;28;20037;-68
2023/03/23 04:08:10;;;;;;;2.25;0.60;;;19.40;61.30;;;;;;5053037;28;20041;-69
2023/03/23 04:10:36;;;;;;;1.00;0.50;;;19.40;61.30;;;;;;5052160;28;20095;-68
2023/03/23 04:13:04;;;;;;;1.02;0.57;;;19.40;61.30;;;;;;5052762;28;20041;-68
2023/03/23 04:15:30;;;;;;;1.88;0.70;;;19.40;61.30;;;;;;5034932;28;20044;-68
2023/03/23 04:17:56;;;;;;;1.60;0.60;;;19.40;61.30;;;;;;5052220;28;20370;-68
2023/03/23 04:20:22;;;;;;;1.30;0.60;;;19.40;61.30;;;;;;5052463;28;20492;-68
2023/03/23 04:22:51;;;;;;;1.25;0.60;;;19.40;61.30;;;;;;5052655;28;20424;-68
2023/03/23 04:25:20;;;;;;;1.30;0.60;;;19.50;61.30;;;;;;5061684;28;20807;-68
2023/03/23 04:27:52;;;;;;;1.20;0.50;;;19.50;61.30;;;;;;5054429;28;20047;-69
2023/03/23 04:30:19;;;;;;;1.00;0.60;;;19.50;61.30;;;;;;5071742;28;20044;-68
2023/03/23 04:32:46;;;;;;;1.83;0.50;;;19.50;61.30;;;;;;5072445;28;20040;-69
2023/03/23 04:35:13;;;;;;;0.90;0.40;;;19.50;61.30;;;;;;5072500;28;20063;-68
2023/03/23 04:37:40;;;;;;;1.48;0.50;;;19.60;61.30;;;;;;5071821;28;20045;-68
2023/03/23 04:40:09;;;;;;;2.03;0.57;;;19.50;61.20;;;;;;5072323;28;20048;-68
2023/03/23 04:42:34;;;;;;;1.27;0.50;;;19.50;61.30;;;;;;5054844;28;20078;-68
2023/03/23 04:45:02;;;;;;;2.15;0.70;;;19.60;61.30;;;;;;5071778;28;20068;-69
2023/03/23 04:47:29;;;;;;;0.88;0.50;;;19.60;61.30;;;;;;5072330;28;20118;-68
2023/03/23 04:49:57;;;;;;;1.65;0.60;;;19.60;61.30;;;;;;5054495;28;20079;-68
2023/03/23 04:52:25;;;;;;;1.63;0.60;;;19.60;61.30;;;;;;5071700;28;20036;-68
2023/03/23 04:54:51;;;;;;;1.00;0.60;;;19.60;61.30;;;;;;5054433;28;20044;-68
2023/03/23 04:57:17;;;;;;;1.77;0.57;;;19.70;61.30;;;;;;5071653;28;20050;-68
2023/03/23 04:59:43;;;;;;;2.03;0.60;;;19.70;61.20;;;;;;5052428;28;20120;-68
2023/03/23 05:02:10;;;;;;;2.65;0.60;;;19.70;61.30;;;;;;5067641;28;20513;-68
2023/03/23 05:04:37;;;;;;;1.05;0.68;;;19.70;61.20;;;;;;5053606;28;20049;-69
2023/03/23 05:07:03;;;;;;;0.80;0.40;;;19.70;61.20;;;;;;5032305;28;20049;-68
2023/03/23 05:09:29;;;;;;;1.58;0.60;;;19.70;61.20;;;;;;5033163;28;20110;-68
2023/03/23 05:11:54;;;;;;;1.83;0.60;;;19.70;61.20;;;;;;5052236;28;20438;-69
2023/03/23 05:14:21;;;;;;;1.02;0.60;;;19.70;61.20;;;;;;5032790;28;20082;-69
2023/03/23 05:16:48;;;;;;;1.70;0.60;;;19.70;61.10;;;;;;5052148;28;20041;-68
2023/03/23 05:19:14;;;;;;;1.00;0.57;;;19.70;61.10;;;;;;5051447;28;20404;-69
2023/03/23 05:21:40;;;;;;;1.13;0.50;;;19.80;61.10;;;;;;5033693;28;20056;-68
2023/03/23 05:24:06;;;;;;;1.20;0.50;;;19.80;61.20;;;;;;5033811;28;20040;-68
2023/03/23 05:26:32;;;;;;;1.38;0.52;;;19.80;61.10;;;;;;5051680;28;20047;-68
2023/03/23 05:28:58;;;;;;;1.92;0.63;;;19.80;61.70;;;;;;5033494;28;20128;-69
2023/03/23 05:31:24;;;;;;;1.17;0.50;;;19.80;61.10;;;;;;5033922;28;20519;-69
2023/03/23 05:33:50;;;;;;;0.98;0.50;;;19.80;61.10;;;;;;5051296;28;20045;-69
2023/03/23 05:36:16;;;;;;;1.85;0.50;;;19.80;61.10;;;;;;5051531;28;20048;-68
2023/03/23 05:38:45;;;;;;;1.33;0.50;;;19.80;61.10;;;;;;5034081;28;20029;-68
2023/03/23 05:41:11;;;;;;;1.25;0.45;;;19.80;61.10;;;;;;5032346;28;20122;-68
2023/03/23 05:43:36;;;;;;;1.15;0.50;;;19.80;61.10;;;;;;5051438;28;20518;-68
2023/03/23 05:46:02;;;;;;;1.55;0.47;;;19.90;61.10;;;;;;5051713;28;20072;-70
2023/03/23 05:48:28;;;;;;;1.13;0.43;;;19.90;61.10;;;;;;5050860;28;20091;-69
2023/03/23 05:50:53;;;;;;;2.15;0.50;;;19.90;61.10;;;;;;5033717;28;20484;-69
2023/03/23 05:53:19;;;;;;;1.58;0.55;;;19.90;61.70;;;;;;5051674;28;20033;-68
2023/03/23 05:55:45;;;;;;;1.23;0.50;;;19.90;61.00;;;;;;5050813;28;20070;-68
2023/03/23 05:58:10;;;;;;;1.45;0.60;;;19.90;61.10;;;;;;5071000;28;20685;-69
2023/03/23 06:00:36;;;;;;;1.23;0.60;;;19.90;61.00;;;;;;5071816;28;20060;-68
2023/03/23 06:03:02;;;;;;;1.23;0.50;;;19.90;61.00;;;;;;5070420;28;20040;-69
2023/03/23 06:05:28;;;;;;;1.15;0.50;;;19.90;61.00;;;;;;5071510;28;20114;-68
2023/03/23 06:07:54;;;;;;;0.73;0.40;;;19.90;61.00;;;;;;5053732;28;20488;-68
2023/03/23 06:10:20;;;;;;;1.63;0.60;;;19.90;61.00;;;;;;5050021;28;20068;-68
2023/03/23 06:12:46;;;;;;;0.77;0.40;;;19.90;61.00;;;;;;5033931;28;20120;-68
2023/03/23 06:15:12;;;;;;;1.83;0.60;;;19.90;60.90;;;;;;5051346;28;20128;-68
2023/03/23 06:17:38;;;;;;;2.47;0.63;;;20.00;61.00;;;;;;5050575;28;20041;-68
2023/03/23 06:20:09;;;;;;;0.77;0.40;;;19.90;60.90;;;;;;5050950;28;20049;-68
2023/03/23 06:22:37;;;;;;;1.05;0.60;;;19.90;60.90;;;;;;5033848;28;20045;-68
2023/03/23 06:25:05;;;;;;;1.52;0.50;;;20.00;61.00;;;;;;5050251;28;20116;-68
2023/03/23 06:27:31;;;;;;;1.70;0.50;;;20.00;61.00;;;;;;5033464;28;20435;-67
2023/03/23 06:29:56;;;;;;;1.83;0.40;;;20.00;61.00;;;;;;5053848;28;20049;-68
2023/03/23 06:32:22;;;;;;;1.42;0.45;;;20.00;61.00;;;;;;5054773;28;20083;-68
2023/03/23 06:34:48;;;;;;;2.80;0.60;;;20.00;61.00;;;;;;5037037;28;20051;-68
2023/03/23 06:37:13;;;;;;;0.88;0.50;;;20.00;61.00;;;;;;5053811;28;20057;-68
2023/03/23 06:39:39;;;;;;;1.80;0.60;;;20.00;61.00;;;;;;5055148;28;20087;-68
2023/03/23 06:42:08;;;;;;;0.90;0.50;;;20.00;61.00;;;;;;5054251;28;20481;-68
2023/03/23 06:44:33;;;;;;;2.17;0.57;;;20.00;61.00;;;;;;5020093;28;20056;-68
2023/03/23 06:46:59;;;;;;;0.65;0.50;;;20.00;61.00;;;;;;5054561;28;20391;-68
2023/03/23 06:49:25;;;;;;;1.42;0.47;;;20.00;61.00;;;;;;5054617;28;20052;-69
2023/03/23 06:51:50;;;;;;;2.22;0.60;;;20.00;61.00;;;;;;5054222;28;20043;-68
2023/03/23 06:54:16;;;;;;;1.85;0.50;;;20.00;61.00;;;;;;5054465;28;20067;-66
2023/03/23 06:56:41;;;;;;;1.65;0.50;;;20.00;60.90;;;;;;5054549;28;20052;-67
2023/03/23 06:59:07;;;;;;;2.08;0.50;;;20.00;60.90;;;;;;5053595;28;20037;-67
2023/03/23 07:01:33;;;;;;;1.05;0.50;;;20.00;60.90;;;;;;5036467;28;20041;-67
2023/03/23 07:03:58;;;;;;;1.80;0.50;;;20.10;61.00;;;;;;5053968;28;20040;-67
2023/03/23 07:06:25;;;;;;;1.75;0.60;;;20.10;61.00;;;;;;5036065;28;20133;-67
2023/03/23 07:08:50;;;;;;;3.85;0.68;;;20.10;61.00;;;;;;5036414;28;20041;-67
2023/03/23 07:11:16;;;;;;;3.03;0.50;;;20.10;61.00;;;;;;5057205;28;20567;-68
2023/03/23 07:13:41;;;;;;;4.13;0.80;;;20.10;61.00;;;;;;5073306;28;20039;-67
2023/03/23 07:16:07;;;;;;;3.67;0.70;;;20.10;61.00;;;;;;5055708;28;20052;-66
2023/03/23 07:18:33;;;;;;;2.55;0.50;;;20.10;61.00;;;;;;5055865;28;20365;-67
2023/03/23 07:20:58;;;;;;;2.63;0.50;;;20.10;61.70;;;;;;5052175;28;20094;-66
2023/03/23 07:23:24;;;;;;;2.50;0.60;;;20.10;61.00;;;;;;5044775;28;20391;-65
2023/03/23 07:25:50;;;;;;;3.53;0.88;;;20.10;61.10;;;;;;5046949;28;20128;-67
2023/03/23 07:28:16;;;;;;;3.53;0.90;;;20.20;61.30;;;;;;5062293;28;20110;-66
2023/03/23 07:30:41;;;;;;;3.45;0.70;;;20.20;61.50;;;;;;5047794;28;20423;-65
2023/03/23 07:33:07;;;;;;;2.45;0.68;;;20.20;61.60;;;;;;5063494;28;20059;-65
2023/03/23 07:35:33;;;;;;;2.90;0.52;;;20.20;61.60;;;;;;5050620;28;20454;-66
2023/03/23 07:37:59;;;;;;;2.90;0.65;;;20.20;61.70;;;;;;5073511;28;20492;-65
2023/03/23 07:40:25;;;;;;;2.42;0.60;;;20.20;61.80;;;;;;5072876;28;20052;-65
2023/03/23 07:42:55;;;;;;;3.10;0.75;;;20.20;61.80;;;;;;5073659;28;20037;-69
2023/03/23 07:45:21;;;;;;;3.58;0.95;;;20.30;61.90;;;;;;5070038;28;20518;-63
2023/03/23 07:47:46;;;;;;;4.50;0.90;;;20.30;62.00;;;;;;5034893;28;20072;-64
2023/03/23 07:50:13;;;;;;;3.22;0.80;;;20.30;62.00;;;;;;5053437;28;20045;-65
2023/03/23 07:52:39;;;;;;;2.65;0.90;;;20.30;62.00;;;;;;5035619;28;20041;-66
2023/03/23 07:55:05;;;;;;;3.88;0.82;;;20.30;62.10;;;;;;5064214;28;20102;-66
2023/03/23 07:57:32;;;;;;;4.65;0.70;;;20.30;62.10;;;;;;5073355;28;20067;-66
2023/03/23 07:59:57;;;;;;;1.92;0.77;;;20.30;62.10;;;;;;5072685;28;20044;-66
2023/03/23 08:02:23;;;;;;;3.45;0.75;;;20.30;62.10;;;;;;5054860;28;20047;-67
2023/03/23 08:04:49;;;;;;;2.88;0.70;;;20.30;62.10;;;;;;5069848;28;20041;-66
2023/03/23 08:07:16;;;;;;;3.92;0.70;;;20.40;62.20;;;;;;5054356;28;20045;-65
2023/03/23 08:09:42;;;;;;;2.13;0.60;;;20.40;62.20;;;;;;5071541;28;20495;-66
2023/03/23 08:12:08;;;;;;;3.72;0.77;;;20.40;62.10;;;;;;5072854;28;20052;-64
2023/03/23 08:14:34;;;;;;;4.20;0.88;;;20.40;62.20;;;;;;5065942;28;20218;-66
2023/03/23 08:17:00;;;;;;;3.67;0.60;;;20.40;62.20;;;;;;5033918;28;20048;-65
2023/03/23 08:19:26;;;;;;;3.60;0.90;;;20.40;62.10;;;;;;5035029;28;20041;-66
2023/03/23 08:21:51;;;;;;;4.35;1.00;;;20.40;62.10;;;;;;5045825;28;20049;-66
2023/03/23 08:24:17;;;;;;;4.38;0.80;;;20.40;62.10;;;;;;5067991;28;20143;-63
2023/03/23 08:26:42;;;;;;;2.30;0.82;;;20.40;62.20;;;;;;5052742;28;20052;-64
2023/03/23 08:29:08;;;;;;;3.67;0.80;;;20.40;62.10;;;;;;5052203;28;20070;-64
2023/03/23 08:31:35;;;;;;;2.75;0.82;;;20.40;62.20;;;;;;5052338;28;20090;-65
2023/03/23 08:34:01;;;;;;;3.30;0.98;;;20.40;62.20;;;;;;5052379;28;20102;-64
2023/03/23 08:36:28;;;;;;;4.18;0.73;;;20.40;62.20;;;;;;5034285;28;20047;-65
2023/03/23 08:38:53;;;;;;;2.33;0.77;;;20.40;62.20;;;;;;5035156;28;20048;-65
2023/03/23 08:41:19;;;;;;;3.05;0.80;;;20.40;62.20;;;;;;5034491;28;20092;-64
2023/03/23 08:43:46;;;;;;;2.28;0.60;;;20.40;62.20;;;;;;5051536;28;20463;-63
2023/03/23 08:46:11;;;;;;;3.15;1.00;;;20.40;62.20;;;;;;5034424;28;20051;-63
2023/03/23 08:48:38;;;;;;;2.92;0.70;;;20.40;62.10;;;;;;5034476;28;20041;-63
2023/03/23 08:51:04;;;;;;;4.10;1.08;;;20.40;62.10;;;;;;5033367;28;20049;-65
2023/03/23 08:53:30;;;;;;;3.60;0.90;;;20.40;62.10;;;;;;5052536;28;20083;-63
2023/03/23 08:56:02;;;;;;;4.07;0.90;;;20.40;62.10;;;;;;5051195;28;20077;-65
2023/03/23 08:58:28;;;;;;;2.97;0.70;;;20.40;62.20;;;;;;5032763;28;20465;-66
2023/03/23 09:00:53;;;;;;;4.90;0.80;;;20.40;62.10;;;;;;5052519;28;20037;-66
2023/03/23 09:03:19;;;;;;;2.63;0.93;;;20.40;62.10;;;;;;5050756;28;20056;-69
2023/03/23 09:05:45;;;;;;;3.50;0.80;;;20.40;62.10;;;;;;5050945;28;20539;-66
2023/03/23 09:08:12;;;;;;;4.57;0.90;;;20.40;62.00;;;;;;5034781;28;20044;-66
2023/03/23 09:10:38;;;;;;;3.22;0.70;;;20.40;62.00;;;;;;5052206;28;20060;-66
2023/03/23 09:13:04;;;;;;;3.88;0.90;;;20.40;61.90;;;;;;5033507;28;20045;-66
2023/03/23 09:15:30;;;;;;;3.97;1.25;;;20.30;61.80;;;;;;5034705;28;20079;-67
2023/03/23 09:17:57;;;;;;;4.80;1.00;;;20.30;61.80;;;;;;5052365;28;20076;-67
2023/03/23 09:20:25;;;;;;;6.10;0.90;;;20.30;61.80;;;;;;5051952;28;20071;-67
2023/03/23 09:22:52;;;;;;;3.72;0.77;;;20.30;61.80;;;;;;5052789;28;20048;-67
2023/03/23 09:25:21;;;;;;;4.32;0.77;;;20.30;61.80;;;;;;5062654;28;20120;-67
2023/03/23 09:27:53;;;;;;;3.42;1.10;;;20.30;61.80;;;;;;5061446;28;20033;-67
2023/03/23 09:30:19;;;;;;;2.97;0.70;;;20.30;61.80;;;;;;5067577;28;20071;-65
2023/03/23 09:32:44;;;;;;;4.30;0.90;;;20.30;61.90;;;;;;5036708;28;20459;-67
2023/03/23 09:35:12;;;;;;;2.50;0.90;;;20.30;62.00;;;;;;5053551;28;20036;-67
2023/03/23 09:37:39;;;;;;;3.35;1.10;;;20.30;62.00;;;;;;5070881;28;20060;-67
2023/03/23 09:40:06;;;;;;;4.03;1.00;;;20.30;62.00;;;;;;5071459;28;20059;-66
2023/03/23 09:42:45;;;;;;;4.85;0.88;;;20.30;62.10;;;;;;5054468;28;20044;-66
2023/03/23 09:45:29;;;;;;;4.25;1.00;;;20.30;62.10;;;;;;5037731;28;20434;-67
2023/03/23 09:48:16;;;;;;;1.40;0.68;;;20.30;62.10;;;;;;5039068;28;20411;-66
2023/03/23 09:50:43;;;;;;;2.70;0.73;;;20.30;62.10;;;;;;5054190;28;20037;-65
2023/03/23 09:53:21;;;;;;;4.95;1.05;;;20.30;62.10;;;;;;5054293;28;20098;-66
2023/03/23 09:55:48;;;;;;;4.30;0.98;;;20.30;62.20;;;;;;5037652;28;20400;-67
2023/03/23 09:58:17;;;;;;;1.97;1.00;;;20.30;62.10;;;;;;5072099;28;20127;-67
2023/03/23 10:00:44;;;;;;;;;;;20.30;62.10;;;;;;5054570;28;20290;-68
2023/03/23 10:03:17;;;;;;;4.57;0.82;;;20.30;62.00;;;;;;5054182;28;19963;-68
2023/03/23 10:05:47;;;;;;;4.93;0.90;;;20.30;62.00;;;;;;5058785;28;20106;-68
2023/03/23 10:08:18;;;;;;;3.15;1.13;;;20.30;61.90;;;;;;5056809;28;20151;-68
2023/03/23 10:11:03;;;;;;;3.45;1.05;;;20.20;61.80;;;;;;5075685;28;20511;-67
2023/03/23 10:13:50;;;;;;;6.47;1.00;;;20.30;62.30;;;;;;5075729;28;20430;-67
2023/03/23 10:16:19;;;;;;;3.20;1.08;;;20.30;61.60;;;;;;5053200;28;20060;-68
2023/03/23 10:19:00;;;;;;;3.63;1.10;;;20.20;61.50;;;;;;5054873;28;20148;-67
2023/03/23 10:21:26;;;;;;;4.90;1.50;;;20.30;61.60;;;;;;5038560;28;20365;-68
2023/03/23 10:24:03;;;;;;;5.82;1.30;;;20.30;61.70;;;;;;5055574;28;20094;-68
2023/03/23 10:26:31;;;;;;;4.20;1.48;;;20.30;61.90;;;;;;5029721;28;20075;-69
2023/03/23 10:29:19;;;;;;;7.68;1.90;;;20.30;62.00;;;;;;5062753;28;20522;-69
2023/03/23 10:31:52;;;;;;;4.97;1.90;;;20.30;62.10;;;;;;5042974;28;20045;-69
2023/03/23 10:34:28;;;;;;;4.43;1.50;;;20.30;62.10;;;;;;5025355;28;20056;-69
2023/03/23 10:37:04;;;;;;;6.40;1.70;;;20.40;62.20;;;;;;5052338;28;20102;-67
2023/03/23 10:39:51;;;;;;;4.97;1.80;;;20.40;62.90;;;;;;5051210;28;20041;-68
2023/03/23 10:42:43;;;;;;;6.50;1.60;;;20.40;62.20;;;;;;5027346;28;20051;-69
2023/03/23 10:45:19;;;;;;;8.32;1.65;;;20.40;62.30;;;;;;5051628;28;20519;-68
2023/03/23 10:47:56;;;;;;;6.78;1.35;;;20.40;62.30;;;;;;5040955;28;20040;-69
2023/03/23 10:50:26;;;;;;;4.25;1.48;;;20.40;62.30;;;;;;5037670;28;20082;-69
2023/03/23 10:52:53;;;;;;;7.90;2.08;;;20.40;62.30;;;;;;5044951;28;20482;-69
2023/03/23 10:55:22;;;;;;;5.78;1.40;;;20.40;62.40;;;;;;5030762;28;20057;-70
2023/03/23 10:58:01;;;;;;;4.90;1.38;;;20.40;62.40;;;;;;5038294;28;20066;-69
2023/03/23 11:00:27;;;;;;;7.32;1.60;;;20.40;62.40;;;;;;5064155;28;20495;-70
2023/03/23 11:03:23;;;;;;;5.38;1.60;;;20.50;62.40;;;;;;5062813;28;20033;-69
2023/03/23 11:05:53;;;;;;;5.25;1.65;;;20.50;62.40;;;;;;5019511;28;20151;-68
2023/03/23 11:08:20;;;;;;;5.53;1.52;;;20.50;62.40;;;;;;5036284;28;20124;-68
2023/03/23 11:10:52;;;;;;;5.15;1.50;;;20.50;62.40;;;;;;5019134;28;20053;-68
2023/03/23 11:13:19;;;;;;;4.03;1.35;;;20.50;62.40;;;;;;5052585;28;20052;-68
2023/03/23 11:15:46;;;;;;;6.38;1.50;;;20.50;62.40;;;;;;5052414;28;20065;-68
2023/03/23 11:18:27;;;;;;;5.68;2.05;;;20.50;62.40;;;;;;5053349;28;20044;-67
2023/03/23 11:20:57;;;;;;;5.53;2.03;;;20.50;62.40;;;;;;5053686;28;20033;-68
2023/03/23 11:23:35;;;;;;;4.05;1.40;;;20.50;62.40;;;;;;5052941;28;20037;-67
2023/03/23 11:26:04;;;;;;;4.43;1.70;;;20.50;62.40;;;;;;5035475;28;20033;-66
2023/03/23 11:28:37;;;;;;;5.53;1.65;;;20.50;62.40;;;;;;5054418;28;20105;-68
2023/03/23 11:31:05;;;;;;;5.13;1.70;;;20.50;62.40;;;;;;5023212;28;20059;-67
2023/03/23 11:34:00;;;;;;;6.93;1.67;;;20.50;62.40;;;;;;5053679;28;20104;-69
2023/03/23 11:36:34;;;;;;;8.73;1.75;;;20.60;62.50;;;;;;5050651;28;20489;-67
2023/03/23 11:38:59;;;;;;;6.60;1.70;;;20.60;62.50;;;;;;5049002;28;20040;-67
2023/03/23 11:41:31;;;;;;;7.53;1.70;;;20.60;62.40;;;;;;5064555;28;20090;-66
2023/03/23 11:43:57;;;;;;;5.25;1.80;;;20.60;62.40;;;;;;5050957;28;20037;-66
2023/03/23 11:46:35;;;;;;;7.80;1.50;;;20.60;62.40;;;;;;5064987;28;20079;-65
2023/03/23 11:49:08;;;;;;;4.03;1.35;;;20.70;62.40;;;;;;5049203;28;20041;-66
2023/03/23 11:51:38;;;;;;;5.97;1.52;;;20.70;62.40;;;;;;5035428;28;20041;-67
2023/03/23 11:54:07;;;;;;;5.00;1.48;;;20.70;62.40;;;;;;5034523;28;20130;-67
2023/03/23 11:56:35;;;;;;;6.38;1.30;;;20.70;62.50;;;;;;5035646;28;20102;-66
2023/03/23 11:59:02;;;;;;;4.85;1.30;;;20.70;62.40;;;;;;5052393;28;20044;-67
2023/03/23 12:01:46;;;;;;;5.97;1.60;;;20.70;62.30;;;;;;5052447;28;20472;-67
2023/03/23 12:04:24;;;;;;;5.20;1.40;;;20.70;62.30;;;;;;5019516;28;20303;-66
2023/03/23 12:07:02;;;;;;;5.13;1.50;;;20.70;62.30;;;;;;5035362;28;20499;-66
2023/03/23 12:09:46;;;;;;;6.00;1.95;;;20.70;62.30;;;;;;5034345;28;20052;-66
2023/03/23 12:12:19;;;;;;;4.60;1.38;;;20.70;62.30;;;;;;5036268;28;20099;-69
2023/03/23 12:15:09;;;;;;;5.40;1.73;;;20.60;62.40;;;;;;5018302;28;20543;-67
2023/03/23 12:17:45;;;;;;;4.57;1.55;;;20.60;62.40;;;;;;5035372;28;20078;-69
2023/03/23 12:20:32;;;;;;;4.95;1.63;;;20.70;62.50;;;;;;5018694;28;20049;-69
2023/03/23 12:23:16;;;;;;;4.30;1.30;;;20.70;62.50;;;;;;5033747;28;20049;-68
2023/03/23 12:26:13;;;;;;;7.72;1.58;;;20.60;62.50;;;;;;5052356;28;20081;-69
2023/03/23 12:29:01;;;;;;;3.33;1.10;;;20.70;62.50;;;;;;5034152;28;20523;-69
2023/03/23 12:31:29;;;;;;;4.25;1.45;;;20.60;62.40;;;;;;5037952;28;20432;-68
2023/03/23 12:34:05;;;;;;;4.60;1.50;;;20.70;62.50;;;;;;5046680;28;20411;-67
2023/03/23 12:36:53;;;;;;;5.28;1.65;;;20.70;62.50;;;;;;5062233;28;20074;-68
2023/03/23 12:39:37;;;;;;;5.72;1.73;;;20.70;62.50;;;;;;5048757;28;20393;-68
2023/03/23 12:42:12;;;;;;;4.25;1.63;;;20.70;62.40;;;;;;5050158;28;20088;-68
2023/03/23 12:44:53;;;;;;;5.30;1.40;;;20.70;62.30;;;;;;5028825;28;20083;-68
2023/03/23 12:47:44;;;;;;;3.80;1.30;;;20.70;62.30;;;;;;5019351;28;20578;-68
2023/03/23 12:50:32;;;;;;;6.03;1.73;;;20.70;62.20;;;;;;5017077;28;20048;-68
2023/03/23 12:53:17;;;;;;;3.75;2.00;;;20.70;62.10;;;;;;5034736;28;20046;-68
2023/03/23 12:56:05;;;;;;;5.03;1.60;;;20.80;62.10;;;;;;5020015;28;20400;-68
2023/03/23 12:58:32;;;;;;;4.63;1.50;;;20.70;62.00;;;;;;5017544;28;20068;-68
2023/03/23 13:01:09;;;;;;;4.15;1.60;;;20.70;62.60;;;;;;5017925;28;20056;-69